Wanneroo, Western Australia

9:52 PM AWST on September 29, 2016 (GMT +0800)
Ocean Reef | | Change Station

Elev 90 ft 31.74 °S, 115.73 °E | Updated 4 seconds ago

Clear
Clear
51.8 °F
Feels Like 51.8 °F
N
1.0
Wind Variable Wind from SSE
Gusts 1.0 mph

Today
High -- | Low -- °F
--% Chance of Precip.
Yesterday
High -- | Low -- °F
Precip. -- in
Pressure 29.95 in
Visibility -9999.0 miles
Clouds
Dew Point 44 °F
Humidity 76%
Rainfall 0.00 in
Snow Depth Not available.
5:57 AM 6:17 PM
Waning Crescent, 2% visible
METAR YPPH 291330Z 16005KT CAVOK 09/07 Q1014 NOSIG
Pressure 29.95 in
Visibility -9999.0 miles
Clouds
Dew Point 44 °F
Humidity 76%
Rainfall 0.00 in
Snow Depth Not available.
5:57 AM 6:17 PM
Waning Crescent, 2% visible
METAR YPPH 291330Z 16005KT CAVOK 09/07 Q1014 NOSIG

10-Day Weather Forecast

Almanac

Astronomy

Sep. 29, 2016 Rise Set
Actual Time
Civil Twilight
Nautical Twilight
Astronomical Twilight
Moon
Length of Visible Light
Length of Day
Tomorrow will be .
, % of the Moon is Illuminated

Today's Extremes

Country Highs Country Lows

Community

WunderPhotos

Upload Photos

1,942,470 photos uploaded!

WunderBlog® & News

Nearby

Air Quality

  Air Quality AQ Index Pollutant
Not available.

Snow Depth

Station Depth Elevation

Earthquake Activity

City Distance Mag. Time & Date
Minimum magnitude displayed is 2.5.

Coastal Water Temperatures

Place Temperature

Stations

Nearby Weather Stations

Station Location Temp. Windchill Dew Point Humidity Wind Precip. Elev Updated Type